sensor_id;sensor_type;location;lat;lon;timestamp;temperature;humidity
37528;DHT22;23372;52.050;4.810;2022-07-06T00:01:33;13.30;99.90
37528;DHT22;23372;52.050;4.810;2022-07-06T00:04:01;13.20;99.90
37528;DHT22;23372;52.050;4.810;2022-07-06T00:06:26;13.20;99.90
37528;DHT22;23372;52.050;4.810;2022-07-06T00:08:52;13.40;99.90
37528;DHT22;23372;52.050;4.810;2022-07-06T00:11:17;13.50;99.90
37528;DHT22;23372;52.050;4.810;2022-07-06T00:13:43;13.50;99.90
37528;DHT22;23372;52.050;4.810;2022-07-06T00:16:08;13.50;99.90
37528;DHT22;23372;52.050;4.810;2022-07-06T00:18:34;13.40;99.90
37528;DHT22;23372;52.050;4.810;2022-07-06T00:21:00;13.40;99.90
37528;DHT22;23372;52.050;4.810;2022-07-06T00:23:25;13.40;99.90
37528;DHT22;23372;52.050;4.810;2022-07-06T00:25:51;13.40;99.90
37528;DHT22;23372;52.050;4.810;2022-07-06T00:28:17;13.30;99.90
37528;DHT22;23372;52.050;4.810;2022-07-06T00:30:42;13.30;99.90
37528;DHT22;23372;52.050;4.810;2022-07-06T00:33:08;13.40;99.90
37528;DHT22;23372;52.050;4.810;2022-07-06T00:35:33;13.40;99.90
37528;DHT22;23372;52.050;4.810;2022-07-06T00:37:59;13.50;99.90
37528;DHT22;23372;52.050;4.810;2022-07-06T00:40:25;13.50;99.90
37528;DHT22;23372;52.050;4.810;2022-07-06T00:42:51;13.40;99.90
37528;DHT22;23372;52.050;4.810;2022-07-06T00:45:17;13.30;99.90
37528;DHT22;23372;52.050;4.810;2022-07-06T00:47:43;13.30;99.90
37528;DHT22;23372;52.050;4.810;2022-07-06T00:50:13;13.30;99.90
37528;DHT22;23372;52.050;4.810;2022-07-06T00:52:56;13.20;99.90
37528;DHT22;23372;52.050;4.810;2022-07-06T00:55:24;13.30;99.90
37528;DHT22;23372;52.050;4.810;2022-07-06T00:57:51;13.20;99.90
37528;DHT22;23372;52.050;4.810;2022-07-06T01:00:19;13.20;99.90
37528;DHT22;23372;52.050;4.810;2022-07-06T01:02:45;13.20;99.90
37528;DHT22;23372;52.050;4.810;2022-07-06T01:05:13;13.20;99.90
37528;DHT22;23372;52.050;4.810;2022-07-06T01:07:41;13.30;99.90
37528;DHT22;23372;52.050;4.810;2022-07-06T01:10:08;13.30;99.90
37528;DHT22;23372;52.050;4.810;2022-07-06T01:12:38;13.30;99.90
37528;DHT22;23372;52.050;4.810;2022-07-06T01:15:06;13.30;99.90
37528;DHT22;23372;52.050;4.810;2022-07-06T01:17:32;13.20;99.90
37528;DHT22;23372;52.050;4.810;2022-07-06T01:19:58;13.30;99.90
37528;DHT22;23372;52.050;4.810;2022-07-06T01:22:23;13.30;99.90
37528;DHT22;23372;52.050;4.810;2022-07-06T01:24:49;13.40;99.90
37528;DHT22;23372;52.050;4.810;2022-07-06T01:27:15;13.40;99.90
37528;DHT22;23372;52.050;4.810;2022-07-06T01:29:40;13.30;99.90
37528;DHT22;23372;52.050;4.810;2022-07-06T01:32:06;13.40;99.90
37528;DHT22;23372;52.050;4.810;2022-07-06T01:34:32;13.40;99.90
37528;DHT22;23372;52.050;4.810;2022-07-06T01:36:57;13.40;99.90
37528;DHT22;23372;52.050;4.810;2022-07-06T01:39:23;13.30;99.90
37528;DHT22;23372;52.050;4.810;2022-07-06T01:41:48;13.40;99.90
37528;DHT22;23372;52.050;4.810;2022-07-06T01:44:14;13.30;99.90
37528;DHT22;23372;52.050;4.810;2022-07-06T01:46:39;13.40;99.90
37528;DHT22;23372;52.050;4.810;2022-07-06T01:49:05;13.40;99.90
37528;DHT22;23372;52.050;4.810;2022-07-06T01:51:31;13.40;99.90
37528;DHT22;23372;52.050;4.810;2022-07-06T01:53:56;13.20;99.90
37528;DHT22;23372;52.050;4.810;2022-07-06T01:56:22;13.20;99.90
37528;DHT22;23372;52.050;4.810;2022-07-06T01:58:48;13.20;99.90
37528;DHT22;23372;52.050;4.810;2022-07-06T02:01:19;13.20;99.90
37528;DHT22;23372;52.050;4.810;2022-07-06T02:03:45;13.30;99.90
37528;DHT22;23372;52.050;4.810;2022-07-06T02:06:11;13.30;99.90
37528;DHT22;23372;52.050;4.810;2022-07-06T02:08:40;13.30;99.90
37528;DHT22;23372;52.050;4.810;2022-07-06T02:11:07;13.30;99.90
37528;DHT22;23372;52.050;4.810;2022-07-06T02:13:33;13.30;99.90
37528;DHT22;23372;52.050;4.810;2022-07-06T02:15:59;13.30;99.90
37528;DHT22;23372;52.050;4.810;2022-07-06T02:18:24;13.30;99.90
37528;DHT22;23372;52.050;4.810;2022-07-06T02:20:50;13.30;99.90
37528;DHT22;23372;52.050;4.810;2022-07-06T02:23:15;13.30;99.90
37528;DHT22;23372;52.050;4.810;2022-07-06T02:25:41;13.30;99.90
37528;DHT22;23372;52.050;4.810;2022-07-06T02:28:06;13.30;99.90
37528;DHT22;23372;52.050;4.810;2022-07-06T02:30:32;13.30;99.90
37528;DHT22;23372;52.050;4.810;2022-07-06T02:32:57;13.20;99.90
37528;DHT22;23372;52.050;4.810;2022-07-06T02:35:23;13.20;99.90
37528;DHT22;23372;52.050;4.810;2022-07-06T02:37:48;13.20;99.90
37528;DHT22;23372;52.050;4.810;2022-07-06T02:40:14;13.30;99.90
37528;DHT22;23372;52.050;4.810;2022-07-06T02:42:40;13.20;99.90
37528;DHT22;23372;52.050;4.810;2022-07-06T02:45:06;13.20;99.90
37528;DHT22;23372;52.050;4.810;2022-07-06T02:47:32;13.20;99.90
37528;DHT22;23372;52.050;4.810;2022-07-06T02:49:58;13.20;99.90
37528;DHT22;23372;52.050;4.810;2022-07-06T02:52:23;13.30;99.90
37528;DHT22;23372;52.050;4.810;2022-07-06T02:54:49;13.30;99.90
37528;DHT22;23372;52.050;4.810;2022-07-06T02:57:16;13.40;99.90
37528;DHT22;23372;52.050;4.810;2022-07-06T02:59:41;13.40;99.90
37528;DHT22;23372;52.050;4.810;2022-07-06T03:02:07;13.40;99.90
37528;DHT22;23372;52.050;4.810;2022-07-06T03:04:33;13.60;99.90
37528;DHT22;23372;52.050;4.810;2022-07-06T03:06:59;13.70;99.90
37528;DHT22;23372;52.050;4.810;2022-07-06T03:09:25;13.70;99.90
37528;DHT22;23372;52.050;4.810;2022-07-06T03:11:51;13.70;99.90
37528;DHT22;23372;52.050;4.810;2022-07-06T03:14:16;13.80;99.90
37528;DHT22;23372;52.050;4.810;2022-07-06T03:16:42;13.80;99.90
37528;DHT22;23372;52.050;4.810;2022-07-06T03:19:08;13.80;99.90
37528;DHT22;23372;52.050;4.810;2022-07-06T03:21:33;13.80;99.90
37528;DHT22;23372;52.050;4.810;2022-07-06T03:23:59;13.80;99.90
37528;DHT22;23372;52.050;4.810;2022-07-06T03:26:24;13.90;99.90
37528;DHT22;23372;52.050;4.810;2022-07-06T03:28:50;14.00;99.90
37528;DHT22;23372;52.050;4.810;2022-07-06T03:31:15;14.10;99.90
37528;DHT22;23372;52.050;4.810;2022-07-06T03:33:41;14.10;99.90
37528;DHT22;23372;52.050;4.810;2022-07-06T03:36:07;14.00;99.90
37528;DHT22;23372;52.050;4.810;2022-07-06T03:38:33;14.10;99.90
37528;DHT22;23372;52.050;4.810;2022-07-06T03:40:58;14.20;99.90
37528;DHT22;23372;52.050;4.810;2022-07-06T03:43:24;14.20;99.90
37528;DHT22;23372;52.050;4.810;2022-07-06T03:45:50;14.20;99.90
37528;DHT22;23372;52.050;4.810;2022-07-06T03:48:15;14.30;99.90
37528;DHT22;23372;52.050;4.810;2022-07-06T03:50:41;14.30;99.90
37528;DHT22;23372;52.050;4.810;2022-07-06T03:53:06;14.40;99.90
37528;DHT22;23372;52.050;4.810;2022-07-06T03:55:32;14.30;99.90
37528;DHT22;23372;52.050;4.810;2022-07-06T03:57:57;14.40;99.90
37528;DHT22;23372;52.050;4.810;2022-07-06T04:00:23;14.40;99.90
37528;DHT22;23372;52.050;4.810;2022-07-06T04:02:48;14.40;99.90
37528;DHT22;23372;52.050;4.810;2022-07-06T04:05:14;14.50;99.90
37528;DHT22;23372;52.050;4.810;2022-07-06T04:07:40;14.50;99.90
37528;DHT22;23372;52.050;4.810;2022-07-06T04:10:06;14.40;99.90
37528;DHT22;23372;52.050;4.810;2022-07-06T04:12:32;14.40;99.90
37528;DHT22;23372;52.050;4.810;2022-07-06T04:15:04;14.40;99.90
37528;DHT22;23372;52.050;4.810;2022-07-06T04:17:30;14.50;99.90
37528;DHT22;23372;52.050;4.810;2022-07-06T04:20:14;14.50;99.90
37528;DHT22;23372;52.050;4.810;2022-07-06T04:22:40;14.60;99.90
37528;DHT22;23372;52.050;4.810;2022-07-06T04:25:05;14.60;99.90
37528;DHT22;23372;52.050;4.810;2022-07-06T04:27:31;14.60;99.90
37528;DHT22;23372;52.050;4.810;2022-07-06T04:29:56;14.60;99.90
37528;DHT22;23372;52.050;4.810;2022-07-06T04:32:22;14.70;99.90
37528;DHT22;23372;52.050;4.810;2022-07-06T04:34:47;14.70;99.90
37528;DHT22;23372;52.050;4.810;2022-07-06T04:37:13;14.80;99.90
37528;DHT22;23372;52.050;4.810;2022-07-06T04:39:38;14.80;99.90
37528;DHT22;23372;52.050;4.810;2022-07-06T04:42:05;14.80;99.90
37528;DHT22;23372;52.050;4.810;2022-07-06T04:44:30;14.80;99.90
37528;DHT22;23372;52.050;4.810;2022-07-06T04:46:56;14.80;99.90
37528;DHT22;23372;52.050;4.810;2022-07-06T04:49:21;14.70;99.90
37528;DHT22;23372;52.050;4.810;2022-07-06T04:51:47;14.80;99.90
37528;DHT22;23372;52.050;4.810;2022-07-06T04:54:12;14.80;99.90
37528;DHT22;23372;52.050;4.810;2022-07-06T04:56:38;14.80;99.90
37528;DHT22;23372;52.050;4.810;2022-07-06T04:59:03;14.80;99.90
37528;DHT22;23372;52.050;4.810;2022-07-06T05:01:29;14.90;99.90
37528;DHT22;23372;52.050;4.810;2022-07-06T05:03:54;14.90;99.90
37528;DHT22;23372;52.050;4.810;2022-07-06T05:06:20;15.00;99.90
37528;DHT22;23372;52.050;4.810;2022-07-06T05:08:46;15.10;99.90
37528;DHT22;23372;52.050;4.810;2022-07-06T05:11:11;15.20;99.90
37528;DHT22;23372;52.050;4.810;2022-07-06T05:13:37;15.40;99.90
37528;DHT22;23372;52.050;4.810;2022-07-06T05:16:03;15.40;99.90
37528;DHT22;23372;52.050;4.810;2022-07-06T05:18:29;15.50;99.90
37528;DHT22;23372;52.050;4.810;2022-07-06T05:20:55;15.50;99.90
37528;DHT22;23372;52.050;4.810;2022-07-06T05:23:21;15.50;99.90
37528;DHT22;23372;52.050;4.810;2022-07-06T05:25:46;15.60;99.90
37528;DHT22;23372;52.050;4.810;2022-07-06T05:28:12;15.60;99.90
37528;DHT22;23372;52.050;4.810;2022-07-06T05:30:37;15.60;99.90
37528;DHT22;23372;52.050;4.810;2022-07-06T05:33:03;15.60;99.90
37528;DHT22;23372;52.050;4.810;2022-07-06T05:35:29;15.60;99.90
37528;DHT22;23372;52.050;4.810;2022-07-06T05:37:54;15.60;99.90
37528;DHT22;23372;52.050;4.810;2022-07-06T05:40:20;15.60;99.90
37528;DHT22;23372;52.050;4.810;2022-07-06T05:42:45;15.60;99.90
37528;DHT22;23372;52.050;4.810;2022-07-06T05:45:11;15.50;99.90
37528;DHT22;23372;52.050;4.810;2022-07-06T05:47:36;15.50;99.90
37528;DHT22;23372;52.050;4.810;2022-07-06T05:50:20;15.50;99.90
37528;DHT22;23372;52.050;4.810;2022-07-06T05:52:59;15.50;99.90
37528;DHT22;23372;52.050;4.810;2022-07-06T05:55:26;15.50;99.90
37528;DHT22;23372;52.050;4.810;2022-07-06T05:57:51;15.60;99.90
37528;DHT22;23372;52.050;4.810;2022-07-06T06:00:23;15.50;99.90
37528;DHT22;23372;52.050;4.810;2022-07-06T06:02:49;15.60;99.90
37528;DHT22;23372;52.050;4.810;2022-07-06T06:05:15;15.60;99.90
37528;DHT22;23372;52.050;4.810;2022-07-06T06:07:41;15.60;99.90
37528;DHT22;23372;52.050;4.810;2022-07-06T06:10:12;15.60;99.90
37528;DHT22;23372;52.050;4.810;2022-07-06T06:12:39;15.70;99.90
37528;DHT22;23372;52.050;4.810;2022-07-06T06:15:06;15.70;99.90
37528;DHT22;23372;52.050;4.810;2022-07-06T06:17:32;15.80;99.90
37528;DHT22;23372;52.050;4.810;2022-07-06T06:19:58;15.90;99.90
37528;DHT22;23372;52.050;4.810;2022-07-06T06:22:24;15.90;99.90
37528;DHT22;23372;52.050;4.810;2022-07-06T06:24:50;16.00;99.90
37528;DHT22;23372;52.050;4.810;2022-07-06T06:27:16;16.10;99.90
37528;DHT22;23372;52.050;4.810;2022-07-06T06:29:41;16.10;99.90
37528;DHT22;23372;52.050;4.810;2022-07-06T06:32:07;16.30;99.90
37528;DHT22;23372;52.050;4.810;2022-07-06T06:34:33;16.40;99.90
37528;DHT22;23372;52.050;4.810;2022-07-06T06:36:59;16.40;99.90
37528;DHT22;23372;52.050;4.810;2022-07-06T06:39:25;16.40;99.90
37528;DHT22;23372;52.050;4.810;2022-07-06T06:41:50;16.50;99.90
37528;DHT22;23372;52.050;4.810;2022-07-06T06:44:16;16.60;99.90
37528;DHT22;23372;52.050;4.810;2022-07-06T06:46:43;16.70;99.90
37528;DHT22;23372;52.050;4.810;2022-07-06T06:49:08;16.80;99.90
37528;DHT22;23372;52.050;4.810;2022-07-06T06:51:34;16.90;99.90
37528;DHT22;23372;52.050;4.810;2022-07-06T06:54:00;16.90;99.90
37528;DHT22;23372;52.050;4.810;2022-07-06T06:56:25;16.90;99.90
37528;DHT22;23372;52.050;4.810;2022-07-06T06:58:51;16.90;99.90
37528;DHT22;23372;52.050;4.810;2022-07-06T07:01:16;16.90;99.90
37528;DHT22;23372;52.050;4.810;2022-07-06T07:03:42;17.00;99.90
37528;DHT22;23372;52.050;4.810;2022-07-06T07:06:08;17.00;99.90
37528;DHT22;23372;52.050;4.810;2022-07-06T07:08:33;17.20;99.90
37528;DHT22;23372;52.050;4.810;2022-07-06T07:10:59;17.40;99.90
37528;DHT22;23372;52.050;4.810;2022-07-06T07:13:24;17.50;99.90
37528;DHT22;23372;52.050;4.810;2022-07-06T07:15:50;17.50;99.90
37528;DHT22;23372;52.050;4.810;2022-07-06T07:18:15;17.60;99.90
37528;DHT22;23372;52.050;4.810;2022-07-06T07:20:41;17.60;99.90
37528;DHT22;23372;52.050;4.810;2022-07-06T07:23:06;17.60;99.90
37528;DHT22;23372;52.050;4.810;2022-07-06T07:25:32;17.70;99.90
37528;DHT22;23372;52.050;4.810;2022-07-06T07:27:57;17.60;99.90
37528;DHT22;23372;52.050;4.810;2022-07-06T07:30:23;17.60;99.90
37528;DHT22;23372;52.050;4.810;2022-07-06T07:32:49;17.60;99.90
37528;DHT22;23372;52.050;4.810;2022-07-06T07:35:14;17.70;99.90
37528;DHT22;23372;52.050;4.810;2022-07-06T07:37:40;17.80;99.90
37528;DHT22;23372;52.050;4.810;2022-07-06T07:40:06;17.90;99.90
37528;DHT22;23372;52.050;4.810;2022-07-06T07:42:32;18.10;99.90
37528;DHT22;23372;52.050;4.810;2022-07-06T07:44:58;18.20;99.90
37528;DHT22;23372;52.050;4.810;2022-07-06T07:47:23;18.30;99.90
37528;DHT22;23372;52.050;4.810;2022-07-06T07:49:49;18.30;99.90
37528;DHT22;23372;52.050;4.810;2022-07-06T07:52:14;18.30;99.90
37528;DHT22;23372;52.050;4.810;2022-07-06T07:54:40;18.30;99.90
37528;DHT22;23372;52.050;4.810;2022-07-06T07:57:05;18.20;99.90
37528;DHT22;23372;52.050;4.810;2022-07-06T07:59:32;18.10;99.90
37528;DHT22;23372;52.050;4.810;2022-07-06T08:01:57;18.20;99.90
37528;DHT22;23372;52.050;4.810;2022-07-06T08:04:24;18.30;99.90
37528;DHT22;23372;52.050;4.810;2022-07-06T08:06:50;18.50;99.90
37528;DHT22;23372;52.050;4.810;2022-07-06T08:09:16;18.60;99.90
37528;DHT22;23372;52.050;4.810;2022-07-06T08:11:43;18.70;99.90
37528;DHT22;23372;52.050;4.810;2022-07-06T08:14:09;18.70;99.90
37528;DHT22;23372;52.050;4.810;2022-07-06T08:16:34;18.80;99.90
37528;DHT22;23372;52.050;4.810;2022-07-06T08:19:00;18.80;99.90
37528;DHT22;23372;52.050;4.810;2022-07-06T08:21:26;18.90;99.90
37528;DHT22;23372;52.050;4.810;2022-07-06T08:23:52;19.00;99.90
37528;DHT22;23372;52.050;4.810;2022-07-06T08:26:18;19.10;99.90
37528;DHT22;23372;52.050;4.810;2022-07-06T08:28:44;19.20;99.90
37528;DHT22;23372;52.050;4.810;2022-07-06T08:31:09;19.20;99.90
37528;DHT22;23372;52.050;4.810;2022-07-06T08:33:35;19.20;99.90
37528;DHT22;23372;52.050;4.810;2022-07-06T08:36:01;19.30;99.90
37528;DHT22;23372;52.050;4.810;2022-07-06T08:38:26;19.40;99.90
37528;DHT22;23372;52.050;4.810;2022-07-06T08:40:52;19.60;99.90
37528;DHT22;23372;52.050;4.810;2022-07-06T08:43:18;19.70;99.90
37528;DHT22;23372;52.050;4.810;2022-07-06T08:45:45;19.90;99.90
37528;DHT22;23372;52.050;4.810;2022-07-06T08:48:12;20.00;99.90
37528;DHT22;23372;52.050;4.810;2022-07-06T08:50:38;20.20;99.90
37528;DHT22;23372;52.050;4.810;2022-07-06T08:53:04;20.20;99.90
37528;DHT22;23372;52.050;4.810;2022-07-06T08:55:30;20.00;99.90
37528;DHT22;23372;52.050;4.810;2022-07-06T08:57:57;19.90;99.90
37528;DHT22;23372;52.050;4.810;2022-07-06T09:00:23;19.80;99.90
37528;DHT22;23372;52.050;4.810;2022-07-06T09:02:50;19.70;99.90
37528;DHT22;23372;52.050;4.810;2022-07-06T09:05:17;19.70;99.90
37528;DHT22;23372;52.050;4.810;2022-07-06T09:07:45;19.60;99.90
37528;DHT22;23372;52.050;4.810;2022-07-06T09:10:14;19.60;99.90
37528;DHT22;23372;52.050;4.810;2022-07-06T09:12:40;19.70;99.90
37528;DHT22;23372;52.050;4.810;2022-07-06T09:15:06;19.70;99.90
37528;DHT22;23372;52.050;4.810;2022-07-06T09:17:31;19.70;99.90
37528;DHT22;23372;52.050;4.810;2022-07-06T09:19:57;19.70;99.90
37528;DHT22;23372;52.050;4.810;2022-07-06T09:22:28;19.70;99.90
37528;DHT22;23372;52.050;4.810;2022-07-06T09:25:07;19.80;99.90
37528;DHT22;23372;52.050;4.810;2022-07-06T09:27:41;19.90;99.90
37528;DHT22;23372;52.050;4.810;2022-07-06T09:30:09;20.00;99.90
37528;DHT22;23372;52.050;4.810;2022-07-06T09:32:45;20.10;99.90
37528;DHT22;23372;52.050;4.810;2022-07-06T09:35:28;20.20;99.90
37528;DHT22;23372;52.050;4.810;2022-07-06T09:38:00;20.20;99.90
37528;DHT22;23372;52.050;4.810;2022-07-06T09:40:26;20.20;99.90
37528;DHT22;23372;52.050;4.810;2022-07-06T09:43:07;20.20;99.90
37528;DHT22;23372;52.050;4.810;2022-07-06T09:45:35;20.30;99.90
37528;DHT22;23372;52.050;4.810;2022-07-06T09:48:30;20.40;99.90
37528;DHT22;23372;52.050;4.810;2022-07-06T09:50:57;20.60;99.90
37528;DHT22;23372;52.050;4.810;2022-07-06T09:53:26;20.70;99.90
37528;DHT22;23372;52.050;4.810;2022-07-06T09:55:53;20.70;99.90
37528;DHT22;23372;52.050;4.810;2022-07-06T09:58:21;20.80;99.90
37528;DHT22;23372;52.050;4.810;2022-07-06T10:00:47;20.90;99.90
37528;DHT22;23372;52.050;4.810;2022-07-06T10:03:15;20.90;99.90
37528;DHT22;23372;52.050;4.810;2022-07-06T10:05:42;20.80;99.90
37528;DHT22;23372;52.050;4.810;2022-07-06T10:08:09;20.80;99.90
37528;DHT22;23372;52.050;4.810;2022-07-06T10:10:36;20.80;99.90
37528;DHT22;23372;52.050;4.810;2022-07-06T10:13:03;20.80;99.90
37528;DHT22;23372;52.050;4.810;2022-07-06T10:15:29;21.00;99.90
37528;DHT22;23372;52.050;4.810;2022-07-06T10:17:59;21.30;99.90
37528;DHT22;23372;52.050;4.810;2022-07-06T10:20:29;21.40;99.90
37528;DHT22;23372;52.050;4.810;2022-07-06T10:22:58;21.50;99.90
37528;DHT22;23372;52.050;4.810;2022-07-06T10:25:26;21.50;99.90
37528;DHT22;23372;52.050;4.810;2022-07-06T10:27:53;21.50;99.90
37528;DHT22;23372;52.050;4.810;2022-07-06T10:30:20;21.50;99.90
37528;DHT22;23372;52.050;4.810;2022-07-06T10:32:47;21.40;99.90
37528;DHT22;23372;52.050;4.810;2022-07-06T10:35:14;21.60;99.90
37528;DHT22;23372;52.050;4.810;2022-07-06T10:37:40;21.90;99.90
37528;DHT22;23372;52.050;4.810;2022-07-06T10:40:07;22.10;99.90
37528;DHT22;23372;52.050;4.810;2022-07-06T10:42:59;22.20;99.90
37528;DHT22;23372;52.050;4.810;2022-07-06T10:50:46;22.60;99.90
37528;DHT22;23372;52.050;4.810;2022-07-06T10:53:17;22.70;99.90
37528;DHT22;23372;52.050;4.810;2022-07-06T10:55:47;22.90;99.90
37528;DHT22;23372;52.050;4.810;2022-07-06T10:58:15;23.00;99.90
37528;DHT22;23372;52.050;4.810;2022-07-06T11:00:59;23.00;99.90
37528;DHT22;23372;52.050;4.810;2022-07-06T11:03:46;23.20;99.90
37528;DHT22;23372;52.050;4.810;2022-07-06T11:06:19;23.30;99.90
37528;DHT22;23372;52.050;4.810;2022-07-06T11:08:56;23.30;99.90
37528;DHT22;23372;52.050;4.810;2022-07-06T11:11:26;23.30;99.90
37528;DHT22;23372;52.050;4.810;2022-07-06T11:16:18;23.50;99.90
37528;DHT22;23372;52.050;4.810;2022-07-06T11:18:49;23.50;99.90
37528;DHT22;23372;52.050;4.810;2022-07-06T11:21:16;23.20;99.90
37528;DHT22;23372;52.050;4.810;2022-07-06T11:23:42;22.80;99.90
37528;DHT22;23372;52.050;4.810;2022-07-06T11:26:09;22.80;99.90
37528;DHT22;23372;52.050;4.810;2022-07-06T11:28:36;23.00;99.90
37528;DHT22;23372;52.050;4.810;2022-07-06T11:31:02;23.40;99.90
37528;DHT22;23372;52.050;4.810;2022-07-06T11:33:31;23.70;99.90
37528;DHT22;23372;52.050;4.810;2022-07-06T11:38:38;24.40;99.90
37528;DHT22;23372;52.050;4.810;2022-07-06T11:41:04;24.60;99.90
37528;DHT22;23372;52.050;4.810;2022-07-06T11:43:30;24.60;99.90
37528;DHT22;23372;52.050;4.810;2022-07-06T11:45:55;24.80;99.90
37528;DHT22;23372;52.050;4.810;2022-07-06T11:48:21;24.80;99.90
37528;DHT22;23372;52.050;4.810;2022-07-06T11:51:03;25.00;99.90
37528;DHT22;23372;52.050;4.810;2022-07-06T11:53:29;25.00;99.90
37528;DHT22;23372;52.050;4.810;2022-07-06T11:55:54;24.90;99.90
37528;DHT22;23372;52.050;4.810;2022-07-06T11:58:21;24.80;99.90
37528;DHT22;23372;52.050;4.810;2022-07-06T12:01:06;24.80;99.90
37528;DHT22;23372;52.050;4.810;2022-07-06T12:03:32;24.70;99.90
37528;DHT22;23372;52.050;4.810;2022-07-06T12:06:21;24.50;99.90
37528;DHT22;23372;52.050;4.810;2022-07-06T12:08:57;24.30;99.90
37528;DHT22;23372;52.050;4.810;2022-07-06T12:11:26;24.00;99.90
37528;DHT22;23372;52.050;4.810;2022-07-06T12:13:54;23.80;99.90
37528;DHT22;23372;52.050;4.810;2022-07-06T12:16:21;23.40;99.90
37528;DHT22;23372;52.050;4.810;2022-07-06T12:18:49;23.50;99.90
37528;DHT22;23372;52.050;4.810;2022-07-06T12:21:18;23.50;99.90
37528;DHT22;23372;52.050;4.810;2022-07-06T12:23:52;23.60;99.90
37528;DHT22;23372;52.050;4.810;2022-07-06T12:26:19;23.70;99.90
37528;DHT22;23372;52.050;4.810;2022-07-06T12:28:58;23.80;99.90
37528;DHT22;23372;52.050;4.810;2022-07-06T12:31:37;23.70;99.90
37528;DHT22;23372;52.050;4.810;2022-07-06T12:34:04;23.60;99.90
37528;DHT22;23372;52.050;4.810;2022-07-06T12:36:31;23.50;99.90
37528;DHT22;23372;52.050;4.810;2022-07-06T12:38:57;23.60;99.90
37528;DHT22;23372;52.050;4.810;2022-07-06T12:41:27;23.60;99.90
37528;DHT22;23372;52.050;4.810;2022-07-06T12:44:01;23.60;99.90
37528;DHT22;23372;52.050;4.810;2022-07-06T12:46:33;23.50;99.90
37528;DHT22;23372;52.050;4.810;2022-07-06T12:49:03;23.50;99.90
37528;DHT22;23372;52.050;4.810;2022-07-06T12:51:28;23.40;99.90
37528;DHT22;23372;52.050;4.810;2022-07-06T12:54:13;23.50;99.90
37528;DHT22;23372;52.050;4.810;2022-07-06T12:59:42;23.30;99.90
37528;DHT22;23372;52.050;4.810;2022-07-06T13:02:16;23.20;99.90
37528;DHT22;23372;52.050;4.810;2022-07-06T13:04:42;23.50;99.90
37528;DHT22;23372;52.050;4.810;2022-07-06T13:07:17;23.40;99.90
37528;DHT22;23372;52.050;4.810;2022-07-06T13:09:44;23.40;99.90
37528;DHT22;23372;52.050;4.810;2022-07-06T13:12:09;23.30;99.90
37528;DHT22;23372;52.050;4.810;2022-07-06T13:14:35;23.10;99.90
37528;DHT22;23372;52.050;4.810;2022-07-06T13:17:00;22.90;99.90
37528;DHT22;23372;52.050;4.810;2022-07-06T13:19:26;22.70;99.90
37528;DHT22;23372;52.050;4.810;2022-07-06T13:21:51;22.70;99.90
37528;DHT22;23372;52.050;4.810;2022-07-06T13:24:17;22.70;99.90
37528;DHT22;23372;52.050;4.810;2022-07-06T13:26:42;22.60;99.90
37528;DHT22;23372;52.050;4.810;2022-07-06T13:29:08;22.40;99.90
37528;DHT22;23372;52.050;4.810;2022-07-06T13:31:36;22.40;99.90
37528;DHT22;23372;52.050;4.810;2022-07-06T13:34:02;22.40;99.90
37528;DHT22;23372;52.050;4.810;2022-07-06T13:36:28;22.30;99.90
37528;DHT22;23372;52.050;4.810;2022-07-06T13:38:53;22.10;99.90
37528;DHT22;23372;52.050;4.810;2022-07-06T13:41:19;22.00;99.90
37528;DHT22;23372;52.050;4.810;2022-07-06T13:43:44;21.90;99.90
37528;DHT22;23372;52.050;4.810;2022-07-06T13:46:10;21.90;99.90
37528;DHT22;23372;52.050;4.810;2022-07-06T13:48:36;21.80;99.90
37528;DHT22;23372;52.050;4.810;2022-07-06T13:51:02;21.70;99.90
37528;DHT22;23372;52.050;4.810;2022-07-06T13:53:27;21.70;99.90
37528;DHT22;23372;52.050;4.810;2022-07-06T13:55:53;21.80;99.90
37528;DHT22;23372;52.050;4.810;2022-07-06T13:58:20;21.80;99.90
37528;DHT22;23372;52.050;4.810;2022-07-06T14:00:45;21.80;99.90
37528;DHT22;23372;52.050;4.810;2022-07-06T14:03:11;21.70;99.90
37528;DHT22;23372;52.050;4.810;2022-07-06T14:05:37;21.60;99.90
37528;DHT22;23372;52.050;4.810;2022-07-06T14:08:03;21.40;99.90
37528;DHT22;23372;52.050;4.810;2022-07-06T14:10:28;21.30;99.90
37528;DHT22;23372;52.050;4.810;2022-07-06T14:12:54;21.20;99.90
37528;DHT22;23372;52.050;4.810;2022-07-06T14:15:20;21.20;99.90
37528;DHT22;23372;52.050;4.810;2022-07-06T14:17:46;21.20;99.90
37528;DHT22;23372;52.050;4.810;2022-07-06T14:20:16;21.20;99.90
37528;DHT22;23372;52.050;4.810;2022-07-06T14:22:43;21.10;99.90
37528;DHT22;23372;52.050;4.810;2022-07-06T14:25:09;21.20;99.90
37528;DHT22;23372;52.050;4.810;2022-07-06T14:27:35;21.20;99.90
37528;DHT22;23372;52.050;4.810;2022-07-06T14:30:01;21.20;99.90
37528;DHT22;23372;52.050;4.810;2022-07-06T14:32:26;21.30;99.90
37528;DHT22;23372;52.050;4.810;2022-07-06T14:34:52;21.40;99.90
37528;DHT22;23372;52.050;4.810;2022-07-06T14:37:18;21.50;99.90
37528;DHT22;23372;52.050;4.810;2022-07-06T14:39:43;21.70;99.90
37528;DHT22;23372;52.050;4.810;2022-07-06T14:42:11;21.70;99.90
37528;DHT22;23372;52.050;4.810;2022-07-06T14:44:37;21.50;99.90
37528;DHT22;23372;52.050;4.810;2022-07-06T14:47:03;21.40;99.90
37528;DHT22;23372;52.050;4.810;2022-07-06T14:49:29;21.40;99.90
37528;DHT22;23372;52.050;4.810;2022-07-06T14:51:55;21.20;99.90
37528;DHT22;23372;52.050;4.810;2022-07-06T14:54:25;21.10;99.90
37528;DHT22;23372;52.050;4.810;2022-07-06T14:56:51;21.00;99.90
37528;DHT22;23372;52.050;4.810;2022-07-06T14:59:16;21.00;99.90
37528;DHT22;23372;52.050;4.810;2022-07-06T15:01:42;21.10;99.90
37528;DHT22;23372;52.050;4.810;2022-07-06T15:04:08;21.20;99.90
37528;DHT22;23372;52.050;4.810;2022-07-06T15:06:34;21.20;99.90
37528;DHT22;23372;52.050;4.810;2022-07-06T15:08:59;21.10;99.90
37528;DHT22;23372;52.050;4.810;2022-07-06T15:11:29;21.00;99.90
37528;DHT22;23372;52.050;4.810;2022-07-06T15:13:55;20.90;99.90
37528;DHT22;23372;52.050;4.810;2022-07-06T15:16:20;20.90;99.90
37528;DHT22;23372;52.050;4.810;2022-07-06T15:18:46;20.90;99.90
37528;DHT22;23372;52.050;4.810;2022-07-06T15:21:11;20.90;99.90
37528;DHT22;23372;52.050;4.810;2022-07-06T15:23:37;20.80;99.90
37528;DHT22;23372;52.050;4.810;2022-07-06T15:26:03;20.70;99.90
37528;DHT22;23372;52.050;4.810;2022-07-06T15:28:28;20.60;99.90
37528;DHT22;23372;52.050;4.810;2022-07-06T15:30:54;20.60;99.90
37528;DHT22;23372;52.050;4.810;2022-07-06T15:33:20;20.60;99.90
37528;DHT22;23372;52.050;4.810;2022-07-06T15:35:46;20.60;99.90
37528;DHT22;23372;52.050;4.810;2022-07-06T15:38:13;20.60;99.90
37528;DHT22;23372;52.050;4.810;2022-07-06T15:40:38;20.60;99.90
37528;DHT22;23372;52.050;4.810;2022-07-06T15:43:10;20.60;99.90